sensor_id;sensor_type;location;lat;lon;timestamp;P1;durP1;ratioP1;P2;durP2;ratioP2
77302;SDS011;66363;49.828;7.856;2023-02-15T00:00:22;29.42;;;8.20;;
77302;SDS011;66363;49.828;7.856;2023-02-15T00:02:48;25.38;;;8.30;;
77302;SDS011;66363;49.828;7.856;2023-02-15T00:05:14;26.10;;;8.52;;
77302;SDS011;66363;49.828;7.856;2023-02-15T00:07:40;27.00;;;9.10;;
77302;SDS011;66363;49.828;7.856;2023-02-15T00:10:06;23.73;;;9.50;;
77302;SDS011;66363;49.828;7.856;2023-02-15T00:14:59;22.67;;;8.10;;
77302;SDS011;66363;49.828;7.856;2023-02-15T00:17:26;20.40;;;6.70;;
77302;SDS011;66363;49.828;7.856;2023-02-15T00:19:52;21.08;;;8.50;;
77302;SDS011;66363;49.828;7.856;2023-02-15T00:22:18;17.88;;;7.18;;
77302;SDS011;66363;49.828;7.856;2023-02-15T00:24:44;22.45;;;8.35;;
77302;SDS011;66363;49.828;7.856;2023-02-15T00:27:10;22.88;;;8.18;;
77302;SDS011;66363;49.828;7.856;2023-02-15T00:29:37;22.15;;;7.95;;
77302;SDS011;66363;49.828;7.856;2023-02-15T00:32:02;21.08;;;8.07;;
77302;SDS011;66363;49.828;7.856;2023-02-15T00:34:28;22.35;;;8.10;;
77302;SDS011;66363;49.828;7.856;2023-02-15T00:36:54;23.90;;;8.18;;
77302;SDS011;66363;49.828;7.856;2023-02-15T00:39:20;18.88;;;7.13;;
77302;SDS011;66363;49.828;7.856;2023-02-15T00:41:45;19.67;;;7.05;;
77302;SDS011;66363;49.828;7.856;2023-02-15T00:44:12;22.30;;;8.50;;
77302;SDS011;66363;49.828;7.856;2023-02-15T00:46:39;19.73;;;7.22;;
77302;SDS011;66363;49.828;7.856;2023-02-15T00:49:04;19.88;;;7.35;;
77302;SDS011;66363;49.828;7.856;2023-02-15T00:51:30;20.65;;;7.75;;
77302;SDS011;66363;49.828;7.856;2023-02-15T00:53:57;22.30;;;8.30;;
77302;SDS011;66363;49.828;7.856;2023-02-15T00:56:22;22.67;;;7.72;;
77302;SDS011;66363;49.828;7.856;2023-02-15T00:58:48;18.25;;;6.95;;
77302;SDS011;66363;49.828;7.856;2023-02-15T01:01:15;21.15;;;7.80;;
77302;SDS011;66363;49.828;7.856;2023-02-15T01:03:43;24.75;;;7.72;;
77302;SDS011;66363;49.828;7.856;2023-02-15T01:06:09;28.35;;;8.13;;
77302;SDS011;66363;49.828;7.856;2023-02-15T01:08:35;19.95;;;7.40;;
77302;SDS011;66363;49.828;7.856;2023-02-15T01:11:03;22.17;;;7.88;;
77302;SDS011;66363;49.828;7.856;2023-02-15T01:13:29;19.60;;;6.80;;
77302;SDS011;66363;49.828;7.856;2023-02-15T01:15:55;18.90;;;7.35;;
77302;SDS011;66363;49.828;7.856;2023-02-15T01:18:21;22.90;;;7.53;;
77302;SDS011;66363;49.828;7.856;2023-02-15T01:20:48;15.70;;;6.43;;
77302;SDS011;66363;49.828;7.856;2023-02-15T01:23:14;23.90;;;7.53;;
77302;SDS011;66363;49.828;7.856;2023-02-15T01:25:40;24.80;;;7.00;;
77302;SDS011;66363;49.828;7.856;2023-02-15T01:28:06;19.67;;;6.65;;
77302;SDS011;66363;49.828;7.856;2023-02-15T01:30:32;23.40;;;7.35;;
77302;SDS011;66363;49.828;7.856;2023-02-15T01:32:57;19.33;;;7.65;;
77302;SDS011;66363;49.828;7.856;2023-02-15T01:35:23;19.60;;;6.72;;
77302;SDS011;66363;49.828;7.856;2023-02-15T01:37:51;19.50;;;7.07;;
77302;SDS011;66363;49.828;7.856;2023-02-15T01:40:16;21.05;;;6.93;;
77302;SDS011;66363;49.828;7.856;2023-02-15T01:42:43;21.73;;;7.30;;
77302;SDS011;66363;49.828;7.856;2023-02-15T01:45:14;24.27;;;7.28;;
77302;SDS011;66363;49.828;7.856;2023-02-15T01:47:45;21.98;;;7.25;;
77302;SDS011;66363;49.828;7.856;2023-02-15T01:50:15;18.67;;;7.25;;
77302;SDS011;66363;49.828;7.856;2023-02-15T01:52:46;22.23;;;8.13;;
77302;SDS011;66363;49.828;7.856;2023-02-15T01:55:17;17.25;;;7.35;;
77302;SDS011;66363;49.828;7.856;2023-02-15T01:57:44;16.52;;;6.80;;
77302;SDS011;66363;49.828;7.856;2023-02-15T02:00:12;21.98;;;8.20;;
77302;SDS011;66363;49.828;7.856;2023-02-15T02:02:39;20.55;;;7.05;;
77302;SDS011;66363;49.828;7.856;2023-02-15T02:05:05;22.73;;;8.02;;
77302;SDS011;66363;49.828;7.856;2023-02-15T02:07:32;22.67;;;7.53;;
77302;SDS011;66363;49.828;7.856;2023-02-15T02:10:02;22.38;;;7.38;;
77302;SDS011;66363;49.828;7.856;2023-02-15T02:12:30;22.52;;;6.93;;
77302;SDS011;66363;49.828;7.856;2023-02-15T02:14:57;19.55;;;7.38;;
77302;SDS011;66363;49.828;7.856;2023-02-15T02:17:27;19.92;;;7.70;;
77302;SDS011;66363;49.828;7.856;2023-02-15T02:23:02;18.20;;;6.60;;
77302;SDS011;66363;49.828;7.856;2023-02-15T02:25:45;16.80;;;6.28;;
77302;SDS011;66363;49.828;7.856;2023-02-15T02:28:50;17.40;;;6.35;;
77302;SDS011;66363;49.828;7.856;2023-02-15T02:31:40;18.00;;;6.10;;
77302;SDS011;66363;49.828;7.856;2023-02-15T02:34:19;16.45;;;5.85;;
77302;SDS011;66363;49.828;7.856;2023-02-15T02:36:51;19.45;;;7.25;;
77302;SDS011;66363;49.828;7.856;2023-02-15T02:39:23;22.50;;;7.63;;
77302;SDS011;66363;49.828;7.856;2023-02-15T02:41:58;18.40;;;6.60;;
77302;SDS011;66363;49.828;7.856;2023-02-15T02:47:01;18.10;;;7.10;;
77302;SDS011;66363;49.828;7.856;2023-02-15T02:49:33;14.45;;;6.25;;
77302;SDS011;66363;49.828;7.856;2023-02-15T02:52:01;17.42;;;6.80;;
77302;SDS011;66363;49.828;7.856;2023-02-15T02:54:28;19.65;;;6.55;;
77302;SDS011;66363;49.828;7.856;2023-02-15T02:56:56;16.35;;;5.93;;
77302;SDS011;66363;49.828;7.856;2023-02-15T02:59:27;15.38;;;5.88;;
77302;SDS011;66363;49.828;7.856;2023-02-15T03:01:59;17.90;;;5.97;;
77302;SDS011;66363;49.828;7.856;2023-02-15T03:04:29;16.77;;;6.85;;
77302;SDS011;66363;49.828;7.856;2023-02-15T03:07:01;15.75;;;7.20;;
77302;SDS011;66363;49.828;7.856;2023-02-15T03:09:30;19.85;;;7.68;;
77302;SDS011;66363;49.828;7.856;2023-02-15T03:11:59;18.60;;;6.97;;
77302;SDS011;66363;49.828;7.856;2023-02-15T03:14:25;19.73;;;6.53;;
77302;SDS011;66363;49.828;7.856;2023-02-15T03:16:51;20.23;;;7.22;;
77302;SDS011;66363;49.828;7.856;2023-02-15T03:19:18;16.58;;;6.32;;
77302;SDS011;66363;49.828;7.856;2023-02-15T03:21:49;18.65;;;6.47;;
77302;SDS011;66363;49.828;7.856;2023-02-15T03:24:17;18.45;;;5.93;;
77302;SDS011;66363;49.828;7.856;2023-02-15T03:26:49;18.38;;;6.63;;
77302;SDS011;66363;49.828;7.856;2023-02-15T03:29:18;16.92;;;6.18;;
77302;SDS011;66363;49.828;7.856;2023-02-15T03:31:49;17.52;;;6.15;;
77302;SDS011;66363;49.828;7.856;2023-02-15T03:34:18;19.75;;;6.95;;
77302;SDS011;66363;49.828;7.856;2023-02-15T03:36:45;18.27;;;6.35;;
77302;SDS011;66363;49.828;7.856;2023-02-15T03:39:18;23.48;;;7.63;;
77302;SDS011;66363;49.828;7.856;2023-02-15T03:44:18;17.58;;;6.50;;
77302;SDS011;66363;49.828;7.856;2023-02-15T03:46:50;19.55;;;7.45;;
77302;SDS011;66363;49.828;7.856;2023-02-15T03:49:21;18.67;;;7.03;;
77302;SDS011;66363;49.828;7.856;2023-02-15T03:51:51;17.13;;;6.93;;
77302;SDS011;66363;49.828;7.856;2023-02-15T03:54:24;18.67;;;6.22;;
77302;SDS011;66363;49.828;7.856;2023-02-15T03:56:51;19.52;;;6.63;;
77302;SDS011;66363;49.828;7.856;2023-02-15T03:59:17;14.90;;;5.93;;
77302;SDS011;66363;49.828;7.856;2023-02-15T04:01:44;17.58;;;7.80;;
77302;SDS011;66363;49.828;7.856;2023-02-15T04:04:19;17.17;;;6.55;;
77302;SDS011;66363;49.828;7.856;2023-02-15T04:06:47;16.08;;;6.57;;
77302;SDS011;66363;49.828;7.856;2023-02-15T04:09:13;15.63;;;6.25;;
77302;SDS011;66363;49.828;7.856;2023-02-15T04:11:41;16.58;;;6.45;;
77302;SDS011;66363;49.828;7.856;2023-02-15T04:14:06;18.25;;;6.00;;
77302;SDS011;66363;49.828;7.856;2023-02-15T04:16:32;19.13;;;7.05;;
77302;SDS011;66363;49.828;7.856;2023-02-15T04:18:58;16.02;;;6.82;;
77302;SDS011;66363;49.828;7.856;2023-02-15T04:21:24;16.55;;;6.47;;
77302;SDS011;66363;49.828;7.856;2023-02-15T04:23:50;16.63;;;7.05;;
77302;SDS011;66363;49.828;7.856;2023-02-15T04:26:16;18.83;;;7.60;;
77302;SDS011;66363;49.828;7.856;2023-02-15T04:28:43;17.42;;;6.22;;
77302;SDS011;66363;49.828;7.856;2023-02-15T04:31:09;14.82;;;6.53;;
77302;SDS011;66363;49.828;7.856;2023-02-15T04:33:34;17.80;;;6.47;;
77302;SDS011;66363;49.828;7.856;2023-02-15T04:36:00;14.25;;;6.25;;
77302;SDS011;66363;49.828;7.856;2023-02-15T04:38:26;18.70;;;6.03;;
77302;SDS011;66363;49.828;7.856;2023-02-15T04:40:52;14.93;;;6.25;;
77302;SDS011;66363;49.828;7.856;2023-02-15T04:43:17;14.65;;;6.05;;
77302;SDS011;66363;49.828;7.856;2023-02-15T04:45:48;18.10;;;5.88;;
77302;SDS011;66363;49.828;7.856;2023-02-15T04:48:14;15.68;;;6.28;;
77302;SDS011;66363;49.828;7.856;2023-02-15T04:50:40;17.88;;;6.25;;
77302;SDS011;66363;49.828;7.856;2023-02-15T04:53:05;15.88;;;5.45;;
77302;SDS011;66363;49.828;7.856;2023-02-15T04:55:31;17.98;;;6.28;;
77302;SDS011;66363;49.828;7.856;2023-02-15T04:57:57;19.20;;;5.90;;
77302;SDS011;66363;49.828;7.856;2023-02-15T05:00:22;19.08;;;6.82;;
77302;SDS011;66363;49.828;7.856;2023-02-15T05:02:49;18.33;;;6.88;;
77302;SDS011;66363;49.828;7.856;2023-02-15T05:05:15;18.08;;;6.60;;
77302;SDS011;66363;49.828;7.856;2023-02-15T05:07:41;19.70;;;6.90;;
77302;SDS011;66363;49.828;7.856;2023-02-15T05:10:07;17.95;;;7.47;;
77302;SDS011;66363;49.828;7.856;2023-02-15T05:12:33;19.17;;;7.78;;
77302;SDS011;66363;49.828;7.856;2023-02-15T05:14:59;19.65;;;6.20;;
77302;SDS011;66363;49.828;7.856;2023-02-15T05:17:24;17.77;;;7.07;;
77302;SDS011;66363;49.828;7.856;2023-02-15T05:19:52;17.95;;;6.32;;
77302;SDS011;66363;49.828;7.856;2023-02-15T05:22:17;18.17;;;6.53;;
77302;SDS011;66363;49.828;7.856;2023-02-15T05:24:43;15.35;;;5.90;;
77302;SDS011;66363;49.828;7.856;2023-02-15T05:27:10;17.95;;;5.80;;
77302;SDS011;66363;49.828;7.856;2023-02-15T05:29:36;15.93;;;5.65;;
77302;SDS011;66363;49.828;7.856;2023-02-15T05:32:02;17.48;;;5.47;;
77302;SDS011;66363;49.828;7.856;2023-02-15T05:34:28;13.30;;;5.97;;
77302;SDS011;66363;49.828;7.856;2023-02-15T05:36:55;17.45;;;6.35;;
77302;SDS011;66363;49.828;7.856;2023-02-15T05:39:20;17.48;;;6.75;;
77302;SDS011;66363;49.828;7.856;2023-02-15T05:41:46;18.77;;;6.68;;
77302;SDS011;66363;49.828;7.856;2023-02-15T05:44:12;19.80;;;7.18;;
77302;SDS011;66363;49.828;7.856;2023-02-15T05:46:37;17.83;;;7.50;;
77302;SDS011;66363;49.828;7.856;2023-02-15T05:49:03;19.63;;;6.82;;
77302;SDS011;66363;49.828;7.856;2023-02-15T05:51:29;16.75;;;6.80;;
77302;SDS011;66363;49.828;7.856;2023-02-15T05:53:56;18.55;;;7.15;;
77302;SDS011;66363;49.828;7.856;2023-02-15T05:56:21;13.00;;;5.93;;
77302;SDS011;66363;49.828;7.856;2023-02-15T05:58:47;19.65;;;6.07;;
77302;SDS011;66363;49.828;7.856;2023-02-15T06:01:13;18.05;;;7.00;;
77302;SDS011;66363;49.828;7.856;2023-02-15T06:03:40;18.42;;;6.00;;
77302;SDS011;66363;49.828;7.856;2023-02-15T06:06:06;15.95;;;7.03;;
77302;SDS011;66363;49.828;7.856;2023-02-15T06:08:33;17.98;;;6.13;;
77302;SDS011;66363;49.828;7.856;2023-02-15T06:11:00;16.17;;;5.97;;
77302;SDS011;66363;49.828;7.856;2023-02-15T06:13:26;18.27;;;5.95;;
77302;SDS011;66363;49.828;7.856;2023-02-15T06:15:52;16.40;;;5.72;;
77302;SDS011;66363;49.828;7.856;2023-02-15T06:18:18;15.63;;;6.75;;
77302;SDS011;66363;49.828;7.856;2023-02-15T06:20:45;14.32;;;5.95;;
77302;SDS011;66363;49.828;7.856;2023-02-15T06:23:10;17.38;;;6.45;;
77302;SDS011;66363;49.828;7.856;2023-02-15T06:25:36;15.82;;;6.38;;
77302;SDS011;66363;49.828;7.856;2023-02-15T06:28:03;15.93;;;5.93;;
77302;SDS011;66363;49.828;7.856;2023-02-15T06:30:29;11.73;;;5.45;;
77302;SDS011;66363;49.828;7.856;2023-02-15T06:32:55;17.98;;;6.53;;
77302;SDS011;66363;49.828;7.856;2023-02-15T06:35:20;17.23;;;6.10;;
77302;SDS011;66363;49.828;7.856;2023-02-15T06:37:46;17.60;;;6.40;;
77302;SDS011;66363;49.828;7.856;2023-02-15T06:40:12;15.68;;;6.75;;
77302;SDS011;66363;49.828;7.856;2023-02-15T06:42:38;17.67;;;6.95;;
77302;SDS011;66363;49.828;7.856;2023-02-15T06:45:05;16.45;;;5.93;;
77302;SDS011;66363;49.828;7.856;2023-02-15T06:47:31;15.48;;;6.07;;
77302;SDS011;66363;49.828;7.856;2023-02-15T06:49:57;13.45;;;5.70;;
77302;SDS011;66363;49.828;7.856;2023-02-15T06:52:23;15.95;;;5.75;;
77302;SDS011;66363;49.828;7.856;2023-02-15T06:54:48;13.65;;;5.57;;
77302;SDS011;66363;49.828;7.856;2023-02-15T06:57:14;14.93;;;5.75;;
77302;SDS011;66363;49.828;7.856;2023-02-15T06:59:40;11.43;;;5.25;;
77302;SDS011;66363;49.828;7.856;2023-02-15T07:02:07;13.65;;;6.03;;
77302;SDS011;66363;49.828;7.856;2023-02-15T07:04:34;14.38;;;5.38;;
77302;SDS011;66363;49.828;7.856;2023-02-15T07:06:59;14.93;;;6.22;;
77302;SDS011;66363;49.828;7.856;2023-02-15T07:09:25;12.55;;;4.95;;
77302;SDS011;66363;49.828;7.856;2023-02-15T07:11:51;12.65;;;5.72;;
77302;SDS011;66363;49.828;7.856;2023-02-15T07:14:16;15.43;;;6.05;;
77302;SDS011;66363;49.828;7.856;2023-02-15T07:16:42;10.80;;;4.95;;
77302;SDS011;66363;49.828;7.856;2023-02-15T07:19:09;14.35;;;5.57;;
77302;SDS011;66363;49.828;7.856;2023-02-15T07:21:35;15.13;;;5.70;;
77302;SDS011;66363;49.828;7.856;2023-02-15T07:24:01;14.45;;;5.80;;
77302;SDS011;66363;49.828;7.856;2023-02-15T07:26:27;11.13;;;5.18;;
77302;SDS011;66363;49.828;7.856;2023-02-15T07:28:52;13.60;;;5.20;;
77302;SDS011;66363;49.828;7.856;2023-02-15T07:31:18;10.52;;;5.70;;
77302;SDS011;66363;49.828;7.856;2023-02-15T07:33:44;14.68;;;6.20;;
77302;SDS011;66363;49.828;7.856;2023-02-15T07:36:11;14.35;;;5.82;;
77302;SDS011;66363;49.828;7.856;2023-02-15T07:38:37;12.93;;;5.38;;
77302;SDS011;66363;49.828;7.856;2023-02-15T07:41:04;15.18;;;5.70;;
77302;SDS011;66363;49.828;7.856;2023-02-15T07:43:32;19.60;;;6.68;;
77302;SDS011;66363;49.828;7.856;2023-02-15T07:45:59;14.00;;;6.13;;
77302;SDS011;66363;49.828;7.856;2023-02-15T07:48:24;14.57;;;6.13;;
77302;SDS011;66363;49.828;7.856;2023-02-15T07:50:50;17.75;;;6.22;;
77302;SDS011;66363;49.828;7.856;2023-02-15T07:53:17;14.60;;;7.10;;
77302;SDS011;66363;49.828;7.856;2023-02-15T07:55:43;13.43;;;5.93;;
77302;SDS011;66363;49.828;7.856;2023-02-15T07:58:08;13.30;;;5.25;;
77302;SDS011;66363;49.828;7.856;2023-02-15T08:00:34;11.43;;;5.18;;
77302;SDS011;66363;49.828;7.856;2023-02-15T08:02:59;11.32;;;5.28;;
77302;SDS011;66363;49.828;7.856;2023-02-15T08:05:25;13.15;;;5.80;;
77302;SDS011;66363;49.828;7.856;2023-02-15T08:07:53;12.70;;;4.72;;
77302;SDS011;66363;49.828;7.856;2023-02-15T08:10:20;10.95;;;4.80;;
77302;SDS011;66363;49.828;7.856;2023-02-15T08:12:45;11.60;;;4.82;;
77302;SDS011;66363;49.828;7.856;2023-02-15T08:15:11;12.02;;;5.28;;
77302;SDS011;66363;49.828;7.856;2023-02-15T08:17:37;11.95;;;5.10;;
77302;SDS011;66363;49.828;7.856;2023-02-15T08:20:02;11.80;;;5.68;;
77302;SDS011;66363;49.828;7.856;2023-02-15T08:22:28;12.35;;;5.80;;
77302;SDS011;66363;49.828;7.856;2023-02-15T08:24:54;11.27;;;5.63;;
77302;SDS011;66363;49.828;7.856;2023-02-15T08:27:21;13.23;;;5.53;;
77302;SDS011;66363;49.828;7.856;2023-02-15T08:29:47;11.45;;;4.82;;
77302;SDS011;66363;49.828;7.856;2023-02-15T08:32:12;12.02;;;4.53;;
77302;SDS011;66363;49.828;7.856;2023-02-15T08:34:38;11.15;;;4.95;;
77302;SDS011;66363;49.828;7.856;2023-02-15T08:37:06;11.63;;;5.30;;
77302;SDS011;66363;49.828;7.856;2023-02-15T08:39:32;12.25;;;5.72;;
77302;SDS011;66363;49.828;7.856;2023-02-15T08:41:58;11.88;;;5.03;;
77302;SDS011;66363;49.828;7.856;2023-02-15T08:44:25;11.63;;;5.10;;
77302;SDS011;66363;49.828;7.856;2023-02-15T08:46:51;14.43;;;5.40;;
77302;SDS011;66363;49.828;7.856;2023-02-15T08:49:17;11.57;;;5.43;;
77302;SDS011;66363;49.828;7.856;2023-02-15T08:51:43;11.05;;;4.70;;
77302;SDS011;66363;49.828;7.856;2023-02-15T08:54:10;12.30;;;5.20;;
77302;SDS011;66363;49.828;7.856;2023-02-15T08:56:38;12.98;;;5.43;;
77302;SDS011;66363;49.828;7.856;2023-02-15T08:59:06;11.73;;;5.40;;
77302;SDS011;66363;49.828;7.856;2023-02-15T09:01:38;12.93;;;5.78;;
77302;SDS011;66363;49.828;7.856;2023-02-15T09:04:04;13.60;;;5.70;;
77302;SDS011;66363;49.828;7.856;2023-02-15T09:06:31;10.07;;;5.28;;
77302;SDS011;66363;49.828;7.856;2023-02-15T09:08:57;11.93;;;5.00;;
77302;SDS011;66363;49.828;7.856;2023-02-15T09:11:23;10.15;;;5.07;;
77302;SDS011;66363;49.828;7.856;2023-02-15T09:13:51;12.00;;;4.82;;
77302;SDS011;66363;49.828;7.856;2023-02-15T09:16:18;10.60;;;4.95;;
77302;SDS011;66363;49.828;7.856;2023-02-15T09:18:45;10.98;;;4.75;;
77302;SDS011;66363;49.828;7.856;2023-02-15T09:21:12;11.27;;;4.68;;
77302;SDS011;66363;49.828;7.856;2023-02-15T09:23:39;12.10;;;5.35;;
77302;SDS011;66363;49.828;7.856;2023-02-15T09:26:06;11.88;;;5.22;;
77302;SDS011;66363;49.828;7.856;2023-02-15T09:28:34;13.13;;;5.47;;
77302;SDS011;66363;49.828;7.856;2023-02-15T09:31:07;11.90;;;5.38;;
77302;SDS011;66363;49.828;7.856;2023-02-15T09:33:34;11.13;;;5.03;;
77302;SDS011;66363;49.828;7.856;2023-02-15T09:36:02;12.48;;;5.68;;
77302;SDS011;66363;49.828;7.856;2023-02-15T09:38:27;12.15;;;5.53;;
77302;SDS011;66363;49.828;7.856;2023-02-15T09:40:55;11.07;;;5.28;;
77302;SDS011;66363;49.828;7.856;2023-02-15T09:46:15;11.55;;;4.82;;
77302;SDS011;66363;49.828;7.856;2023-02-15T09:48:52;10.15;;;4.50;;
77302;SDS011;66363;49.828;7.856;2023-02-15T09:51:26;10.07;;;5.18;;
77302;SDS011;66363;49.828;7.856;2023-02-15T09:54:11;11.48;;;4.95;;
77302;SDS011;66363;49.828;7.856;2023-02-15T09:56:48;13.10;;;5.05;;
77302;SDS011;66363;49.828;7.856;2023-02-15T09:59:19;13.68;;;5.00;;
77302;SDS011;66363;49.828;7.856;2023-02-15T10:01:55;14.07;;;5.25;;
77302;SDS011;66363;49.828;7.856;2023-02-15T10:04:35;10.60;;;5.32;;
77302;SDS011;66363;49.828;7.856;2023-02-15T10:07:18;12.15;;;5.43;;
77302;SDS011;66363;49.828;7.856;2023-02-15T10:10:02;12.27;;;4.72;;
77302;SDS011;66363;49.828;7.856;2023-02-15T10:12:40;13.85;;;5.60;;
77302;SDS011;66363;49.828;7.856;2023-02-15T10:15:22;10.55;;;4.90;;
77302;SDS011;66363;49.828;7.856;2023-02-15T10:18:06;11.32;;;5.32;;
77302;SDS011;66363;49.828;7.856;2023-02-15T10:20:47;10.32;;;4.57;;
77302;SDS011;66363;49.828;7.856;2023-02-15T10:23:25;12.98;;;5.28;;
77302;SDS011;66363;49.828;7.856;2023-02-15T10:26:04;9.55;;;4.30;;
77302;SDS011;66363;49.828;7.856;2023-02-15T10:28:38;10.07;;;4.63;;
77302;SDS011;66363;49.828;7.856;2023-02-15T10:31:11;13.82;;;5.68;;
77302;SDS011;66363;49.828;7.856;2023-02-15T10:33:45;11.68;;;4.93;;
77302;SDS011;66363;49.828;7.856;2023-02-15T10:36:21;13.90;;;5.75;;
77302;SDS011;66363;49.828;7.856;2023-02-15T10:39:04;9.85;;;5.43;;
77302;SDS011;66363;49.828;7.856;2023-02-15T10:41:36;10.50;;;4.45;;
77302;SDS011;66363;49.828;7.856;2023-02-15T10:44:15;12.45;;;4.78;;
77302;SDS011;66363;49.828;7.856;2023-02-15T10:46:55;11.38;;;5.10;;
77302;SDS011;66363;49.828;7.856;2023-02-15T10:49:37;11.55;;;5.05;;
77302;SDS011;66363;49.828;7.856;2023-02-15T10:52:18;9.43;;;4.13;;
77302;SDS011;66363;49.828;7.856;2023-02-15T10:54:56;11.45;;;5.28;;
77302;SDS011;66363;49.828;7.856;2023-02-15T11:00:05;10.75;;;4.63;;
77302;SDS011;66363;49.828;7.856;2023-02-15T11:02:40;10.05;;;5.35;;
77302;SDS011;66363;49.828;7.856;2023-02-15T11:05:23;14.07;;;5.63;;
77302;SDS011;66363;49.828;7.856;2023-02-15T11:07:59;8.98;;;4.78;;
77302;SDS011;66363;49.828;7.856;2023-02-15T11:10:32;11.13;;;5.70;;
77302;SDS011;66363;49.828;7.856;2023-02-15T11:13:02;10.15;;;4.90;;
77302;SDS011;66363;49.828;7.856;2023-02-15T11:15:35;11.73;;;5.95;;
77302;SDS011;66363;49.828;7.856;2023-02-15T11:18:06;11.07;;;5.13;;
77302;SDS011;66363;49.828;7.856;2023-02-15T11:20:38;14.38;;;5.28;;
77302;SDS011;66363;49.828;7.856;2023-02-15T11:23:12;11.85;;;5.75;;
77302;SDS011;66363;49.828;7.856;2023-02-15T11:25:42;10.65;;;5.68;;
77302;SDS011;66363;49.828;7.856;2023-02-15T11:28:10;9.32;;;4.63;;
77302;SDS011;66363;49.828;7.856;2023-02-15T11:30:43;10.93;;;5.30;;
77302;SDS011;66363;49.828;7.856;2023-02-15T11:33:15;13.20;;;5.22;;
77302;SDS011;66363;49.828;7.856;2023-02-15T11:35:47;8.77;;;5.18;;
77302;SDS011;66363;49.828;7.856;2023-02-15T11:38:17;12.30;;;6.10;;
77302;SDS011;66363;49.828;7.856;2023-02-15T11:40:48;9.50;;;4.30;;
77302;SDS011;66363;49.828;7.856;2023-02-15T11:43:19;10.52;;;4.93;;
77302;SDS011;66363;49.828;7.856;2023-02-15T11:45:49;12.35;;;5.43;;
77302;SDS011;66363;49.828;7.856;2023-02-15T11:48:15;11.27;;;5.53;;
77302;SDS011;66363;49.828;7.856;2023-02-15T11:50:41;10.57;;;5.30;;
77302;SDS011;66363;49.828;7.856;2023-02-15T11:53:09;11.18;;;5.38;;
77302;SDS011;66363;49.828;7.856;2023-02-15T11:55:39;12.68;;;5.43;;
77302;SDS011;66363;49.828;7.856;2023-02-15T11:58:12;11.50;;;5.82;;
77302;SDS011;66363;49.828;7.856;2023-02-15T12:00:49;11.27;;;5.68;;
77302;SDS011;66363;49.828;7.856;2023-02-15T12:03:20;12.50;;;5.97;;
77302;SDS011;66363;49.828;7.856;2023-02-15T12:05:53;9.48;;;5.22;;
77302;SDS011;66363;49.828;7.856;2023-02-15T12:08:22;10.45;;;5.60;;
77302;SDS011;66363;49.828;7.856;2023-02-15T12:10:57;11.15;;;5.72;;
77302;SDS011;66363;49.828;7.856;2023-02-15T12:13:27;10.52;;;5.45;;
77302;SDS011;66363;49.828;7.856;2023-02-15T12:15:53;13.93;;;6.97;;
77302;SDS011;66363;49.828;7.856;2023-02-15T12:18:24;12.25;;;6.18;;
77302;SDS011;66363;49.828;7.856;2023-02-15T12:20:59;14.05;;;6.40;;
77302;SDS011;66363;49.828;7.856;2023-02-15T12:23:27;12.73;;;6.10;;
77302;SDS011;66363;49.828;7.856;2023-02-15T12:25:54;17.27;;;6.60;;
77302;SDS011;66363;49.828;7.856;2023-02-15T12:28:23;14.75;;;6.47;;
77302;SDS011;66363;49.828;7.856;2023-02-15T12:30:56;15.18;;;7.13;;
77302;SDS011;66363;49.828;7.856;2023-02-15T12:35:54;13.73;;;6.20;;
77302;SDS011;66363;49.828;7.856;2023-02-15T12:38:23;14.85;;;7.00;;
77302;SDS011;66363;49.828;7.856;2023-02-15T12:40:56;13.65;;;6.80;;
77302;SDS011;66363;49.828;7.856;2023-02-15T12:43:24;11.80;;;6.22;;
77302;SDS011;66363;49.828;7.856;2023-02-15T12:45:52;13.20;;;6.43;;
77302;SDS011;66363;49.828;7.856;2023-02-15T12:48:19;14.73;;;7.10;;
77302;SDS011;66363;49.828;7.856;2023-02-15T12:50:45;15.20;;;7.00;;
77302;SDS011;66363;49.828;7.856;2023-02-15T12:53:15;11.45;;;6.05;;
77302;SDS011;66363;49.828;7.856;2023-02-15T12:55:53;13.73;;;6.55;;
77302;SDS011;66363;49.828;7.856;2023-02-15T12:58:20;13.10;;;6.88;;
77302;SDS011;66363;49.828;7.856;2023-02-15T13:00:48;13.65;;;6.68;;
77302;SDS011;66363;49.828;7.856;2023-02-15T13:03:27;12.25;;;6.80;;
77302;SDS011;66363;49.828;7.856;2023-02-15T13:05:53;16.50;;;6.82;;
77302;SDS011;66363;49.828;7.856;2023-02-15T13:08:20;15.02;;;6.72;;
77302;SDS011;66363;49.828;7.856;2023-02-15T13:10:52;12.85;;;7.60;;
77302;SDS011;66363;49.828;7.856;2023-02-15T13:13:22;13.88;;;7.15;;
77302;SDS011;66363;49.828;7.856;2023-02-15T13:15:51;12.93;;;6.22;;
77302;SDS011;66363;49.828;7.856;2023-02-15T13:18:19;15.63;;;7.45;;
77302;SDS011;66363;49.828;7.856;2023-02-15T13:20:53;16.73;;;7.10;;
77302;SDS011;66363;49.828;7.856;2023-02-15T13:23:22;15.05;;;7.25;;
77302;SDS011;66363;49.828;7.856;2023-02-15T13:25:51;13.52;;;6.70;;
77302;SDS011;66363;49.828;7.856;2023-02-15T13:28:19;15.73;;;7.82;;
77302;SDS011;66363;49.828;7.856;2023-02-15T13:30:51;13.38;;;6.38;;
77302;SDS011;66363;49.828;7.856;2023-02-15T13:33:17;13.48;;;6.63;;
77302;SDS011;66363;49.828;7.856;2023-02-15T13:35:52;15.23;;;7.25;;
77302;SDS011;66363;49.828;7.856;2023-02-15T13:38:36;13.63;;;6.85;;
77302;SDS011;66363;49.828;7.856;2023-02-15T13:41:12;13.10;;;7.32;;
77302;SDS011;66363;49.828;7.856;2023-02-15T13:43:42;13.40;;;7.30;;
77302;SDS011;66363;49.828;7.856;2023-02-15T13:46:21;15.68;;;7.97;;
77302;SDS011;66363;49.828;7.856;2023-02-15T13:49:01;13.38;;;7.13;;
77302;SDS011;66363;49.828;7.856;2023-02-15T13:51:38;17.58;;;8.43;;
77302;SDS011;66363;49.828;7.856;2023-02-15T13:57:14;16.35;;;8.10;;
77302;SDS011;66363;49.828;7.856;2023-02-15T13:59:56;16.48;;;7.60;;
77302;SDS011;66363;49.828;7.856;2023-02-15T14:02:42;15.32;;;7.60;;
77302;SDS011;66363;49.828;7.856;2023-02-15T14:08:34;15.77;;;7.43;;
77302;SDS011;66363;49.828;7.856;2023-02-15T14:11:12;16.67;;;8.18;;
77302;SDS011;66363;49.828;7.856;2023-02-15T14:13:50;15.73;;;7.82;;
77302;SDS011;66363;49.828;7.856;2023-02-15T14:16:29;17.38;;;8.35;;
77302;SDS011;66363;49.828;7.856;2023-02-15T14:19:16;15.93;;;7.72;;
77302;SDS011;66363;49.828;7.856;2023-02-15T14:21:48;14.75;;;7.90;;
77302;SDS011;66363;49.828;7.856;2023-02-15T14:24:25;15.35;;;7.68;;
77302;SDS011;66363;49.828;7.856;2023-02-15T14:26:57;14.07;;;7.22;;
77302;SDS011;66363;49.828;7.856;2023-02-15T14:29:41;16.40;;;8.43;;
77302;SDS011;66363;49.828;7.856;2023-02-15T14:32:14;18.52;;;7.88;;
77302;SDS011;66363;49.828;7.856;2023-02-15T14:34:48;16.33;;;7.97;;
77302;SDS011;66363;49.828;7.856;2023-02-15T14:37:19;19.20;;;8.95;;
77302;SDS011;66363;49.828;7.856;2023-02-15T14:42:22;17.50;;;8.88;;
77302;SDS011;66363;49.828;7.856;2023-02-15T14:44:57;17.42;;;8.73;;
77302;SDS011;66363;49.828;7.856;2023-02-15T14:47:31;20.13;;;9.48;;
77302;SDS011;66363;49.828;7.856;2023-02-15T15:04:35;17.33;;;9.43;;
77302;SDS011;66363;49.828;7.856;2023-02-15T15:07:08;19.58;;;8.75;;
77302;SDS011;66363;49.828;7.856;2023-02-15T15:09:43;20.55;;;9.75;;
77302;SDS011;66363;49.828;7.856;2023-02-15T15:12:18;21.02;;;8.98;;
77302;SDS011;66363;49.828;7.856;2023-02-15T15:15:03;19.90;;;8.95;;
77302;SDS011;66363;49.828;7.856;2023-02-15T15:20:40;21.85;;;9.70;;
77302;SDS011;66363;49.828;7.856;2023-02-15T15:26:22;25.17;;;13.18;;
77302;SDS011;66363;49.828;7.856;2023-02-15T15:28:54;21.90;;;10.57;;
77302;SDS011;66363;49.828;7.856;2023-02-15T15:34:00;17.50;;;8.23;;
77302;SDS011;66363;49.828;7.856;2023-02-15T15:49:28;22.13;;;9.60;;
77302;SDS011;66363;49.828;7.856;2023-02-15T15:51:55;19.13;;;9.85;;